createdAt,value
2019-02-18T00:02:31.735Z,4.90
2019-02-18T00:05:14.359Z,5.03
2019-02-18T00:08:04.769Z,5.67
2019-02-18T00:10:48.080Z,5.37
2019-02-18T00:13:38.810Z,5.13
2019-02-18T00:16:21.587Z,4.93
2019-02-18T00:19:15.053Z,4.77
2019-02-18T00:21:57.759Z,5.10
2019-02-18T00:24:48.151Z,5.03
2019-02-18T00:27:31.386Z,5.47
2019-02-18T00:30:21.743Z,5.00
2019-02-18T00:33:05.282Z,5.63
2019-02-18T00:35:55.684Z,5.90
2019-02-18T00:38:38.308Z,5.67
2019-02-18T00:41:28.653Z,5.37
2019-02-18T00:44:12.064Z,5.23
2019-02-18T00:47:02.446Z,5.33
2019-02-18T00:49:45.134Z,5.37
2019-02-18T00:52:35.516Z,5.07
2019-02-18T00:55:18.236Z,5.30
2019-02-18T00:58:08.609Z,5.20
2019-02-18T01:00:51.730Z,5.40
2019-02-18T01:03:42.121Z,5.20
2019-02-18T01:06:25.654Z,5.23
2019-02-18T01:09:16.036Z,5.10
2019-02-18T01:11:58.621Z,4.53
2019-02-18T01:14:49.017Z,5.33
2019-02-18T01:17:32.339Z,5.23
2019-02-18T01:20:22.755Z,5.43
2019-02-18T01:23:06.143Z,5.17
2019-02-18T01:25:56.515Z,4.90
2019-02-18T01:28:39.253Z,4.97
2019-02-18T01:31:29.641Z,5.07
2019-02-18T01:34:13.078Z,5.10
2019-02-18T01:37:03.474Z,5.27
2019-02-18T01:39:46.730Z,5.47
2019-02-18T01:42:37.114Z,4.70
2019-02-18T01:45:27.463Z,5.03
2019-02-18T01:48:10.851Z,4.80
2019-02-18T01:50:53.473Z,4.90
2019-02-18T01:53:43.780Z,5.03
2019-02-18T01:56:27.010Z,4.80
2019-02-18T01:59:17.369Z,5.00
2019-02-18T02:01:59.863Z,5.00
2019-02-18T02:04:50.247Z,5.00
2019-02-18T02:07:33.332Z,4.57
2019-02-18T02:10:23.692Z,4.87
2019-02-18T02:13:25.261Z,4.63
2019-02-18T02:16:09.383Z,4.83
2019-02-18T02:18:54.633Z,5.03
2019-02-18T02:21:44.997Z,4.63
2019-02-18T02:24:27.964Z,5.20
2019-02-18T02:27:18.340Z,4.40
2019-02-18T02:30:00.989Z,4.83
2019-02-18T02:32:51.346Z,4.50
2019-02-18T02:35:34.071Z,4.43
2019-02-18T02:38:24.421Z,4.70
2019-02-18T02:41:07.504Z,4.60
2019-02-18T02:43:57.871Z,4.83
2019-02-18T02:46:40.799Z,4.43
2019-02-18T02:49:31.185Z,5.00
2019-02-18T02:52:14.593Z,4.57
2019-02-18T02:55:05.151Z,4.57
2019-02-18T02:57:47.801Z,4.43
2019-02-18T03:00:38.186Z,4.43
2019-02-18T03:03:20.835Z,4.30
2019-02-18T03:06:11.212Z,4.50
2019-02-18T03:08:54.693Z,4.50
2019-02-18T03:11:45.029Z,4.37
2019-02-18T03:14:27.945Z,4.80
2019-02-18T03:17:18.277Z,4.87
2019-02-18T03:20:01.471Z,4.57
2019-02-18T03:22:51.820Z,4.97
2019-02-18T03:25:35.227Z,4.97
2019-02-18T03:29:03.654Z,4.53
2019-02-18T03:31:46.644Z,4.80
2019-02-18T03:34:31.379Z,4.53
2019-02-18T03:37:21.758Z,5.13
2019-02-18T03:40:05.509Z,4.50
2019-02-18T03:42:55.903Z,4.40
2019-02-18T03:45:38.782Z,4.83
2019-02-18T03:48:29.096Z,4.60
2019-02-18T03:51:11.657Z,4.80
2019-02-18T03:54:02.150Z,4.10
2019-02-18T03:56:45.429Z,4.60
2019-02-18T04:03:04.149Z,4.60
2019-02-18T04:05:54.531Z,4.60
2019-02-18T04:08:44.919Z,4.53
2019-02-18T04:11:35.322Z,4.67
2019-02-18T04:14:38.255Z,4.53
2019-02-18T04:17:28.731Z,4.10
2019-02-18T04:20:11.352Z,4.07
2019-02-18T04:23:01.721Z,4.77
2019-02-18T04:25:44.997Z,4.50
2019-02-18T04:28:35.379Z,4.50
2019-02-18T04:31:18.059Z,4.27
2019-02-18T04:34:08.470Z,4.40
2019-02-18T04:36:51.113Z,4.10
2019-02-18T04:39:41.461Z,5.00
2019-02-18T04:42:24.498Z,4.27
2019-02-18T04:45:14.855Z,4.57
2019-02-18T04:47:58.267Z,3.90
2019-02-18T04:50:48.625Z,4.70
2019-02-18T04:53:31.356Z,3.87
2019-02-18T04:56:21.774Z,4.60
2019-02-18T04:59:04.760Z,4.33
2019-02-18T05:02:14.129Z,4.40
2019-02-18T05:04:57.603Z,4.60
2019-02-18T05:07:47.943Z,4.40
2019-02-18T05:10:31.304Z,4.40
2019-02-18T05:13:21.698Z,4.73
2019-02-18T05:16:04.738Z,4.17
2019-02-18T05:18:48.030Z,4.30
2019-02-18T05:21:38.377Z,4.80
2019-02-18T05:24:21.603Z,5.00
2019-02-18T05:27:11.947Z,5.10
2019-02-18T05:29:54.548Z,5.13
2019-02-18T05:32:44.940Z,5.07
2019-02-18T05:35:27.601Z,4.37
2019-02-18T05:38:10.468Z,5.17
2019-02-18T05:41:01.479Z,5.20
2019-02-18T05:43:44.022Z,4.33
2019-02-18T05:46:34.387Z,4.30
2019-02-18T05:49:17.385Z,4.60
2019-02-18T05:52:07.894Z,4.70
2019-02-18T05:55:11.098Z,4.77
2019-02-18T05:58:01.516Z,4.87
2019-02-18T06:00:44.434Z,5.03
2019-02-18T06:03:34.761Z,4.83
2019-02-18T06:06:18.035Z,4.90
2019-02-18T06:09:08.437Z,4.70
2019-02-18T06:12:11.301Z,4.70
2019-02-18T06:15:01.659Z,4.47
2019-02-18T06:17:44.980Z,4.50
2019-02-18T06:20:27.825Z,4.50
2019-02-18T06:23:18.898Z,4.70
2019-02-18T06:26:01.890Z,4.80
2019-02-18T06:28:52.301Z,4.70
2019-02-18T06:31:35.549Z,4.50
2019-02-18T06:34:25.969Z,4.60
2019-02-18T06:37:08.971Z,5.07
2019-02-18T06:39:59.356Z,5.20
2019-02-18T06:42:42.879Z,4.33
2019-02-18T06:45:39.608Z,4.80
2019-02-18T06:48:41.693Z,4.53
2019-02-18T06:55:00.327Z,4.70
2019-02-18T06:58:09.500Z,5.03
2019-02-18T07:01:18.713Z,4.77
2019-02-18T07:04:40.885Z,4.97
2019-02-18T07:07:50.097Z,4.87
2019-02-18T07:10:39.854Z,4.60
2019-02-18T07:13:30.209Z,4.67
2019-02-18T07:16:13.540Z,4.70
2019-02-18T07:18:59.171Z,5.00
2019-02-18T07:21:48.677Z,4.43
2019-02-18T07:24:31.984Z,5.57
2019-02-18T07:27:22.407Z,4.90
2019-02-18T07:30:05.992Z,4.93
2019-02-18T07:32:48.652Z,4.83
2019-02-18T07:35:39.073Z,4.93
2019-02-18T07:38:22.648Z,4.70
2019-02-18T07:41:13.046Z,4.70
2019-02-18T07:43:57.632Z,4.67
2019-02-18T07:46:48.023Z,4.93
2019-02-18T07:49:31.344Z,4.40
2019-02-18T07:52:21.753Z,5.13
2019-02-18T07:55:06.233Z,4.87
2019-02-18T07:57:56.645Z,4.60
2019-02-18T08:00:39.422Z,5.20
2019-02-18T08:03:29.849Z,4.83
2019-02-18T08:06:12.985Z,4.87
2019-02-18T08:12:19.351Z,4.60
2019-02-18T08:15:06.292Z,4.97
2019-02-18T08:17:49.206Z,4.77
2019-02-18T08:20:39.639Z,4.50
2019-02-18T08:23:22.528Z,4.93
2019-02-18T08:26:12.914Z,4.83
2019-02-18T08:29:16.074Z,4.97
2019-02-18T08:32:06.482Z,4.43
2019-02-18T08:35:09.700Z,4.80
2019-02-18T08:38:00.104Z,4.63
2019-02-18T08:41:03.539Z,4.63
2019-02-18T08:43:53.929Z,4.17
2019-02-18T08:46:36.834Z,4.53
2019-02-18T08:49:19.605Z,4.70
2019-02-18T08:55:12.259Z,5.17
2019-02-18T08:58:23.101Z,4.40
2019-02-18T09:01:06.045Z,5.10
2019-02-18T09:03:56.379Z,4.73
2019-02-18T09:06:39.875Z,4.90
2019-02-18T09:12:58.865Z,4.57
2019-02-18T09:15:59.409Z,4.30
2019-02-18T09:18:54.133Z,4.13
2019-02-18T09:21:44.591Z,3.93
2019-02-18T09:24:31.833Z,4.50
2019-02-18T09:27:15.415Z,4.50
2019-02-18T09:30:06.643Z,4.00
2019-02-18T09:32:50.025Z,4.10
2019-02-18T09:35:40.485Z,4.30
2019-02-18T09:38:25.374Z,3.90
2019-02-18T09:41:15.282Z,5.00
2019-02-18T09:43:58.596Z,4.20
2019-02-18T09:47:07.835Z,4.60
2019-02-18T09:49:51.012Z,4.20
2019-02-18T09:52:41.428Z,4.43
2019-02-18T09:55:24.401Z,4.53
2019-02-18T09:58:14.818Z,4.70
2019-02-18T10:00:46.143Z,4.60
2019-02-18T10:03:36.515Z,4.50
2019-02-18T10:09:29.827Z,4.43
2019-02-18T10:12:20.208Z,4.70
2019-02-18T10:15:02.873Z,3.87
2019-02-18T10:17:45.501Z,4.20
2019-02-18T10:20:35.847Z,4.47
2019-02-18T10:23:19.088Z,4.77
2019-02-18T10:26:09.437Z,4.60
2019-02-18T10:28:52.857Z,5.10
2019-02-18T10:31:43.233Z,4.50
2019-02-18T10:34:25.826Z,4.90
2019-02-18T10:37:19.319Z,4.53
2019-02-18T10:40:02.679Z,5.03
2019-02-18T10:42:53.014Z,4.57
2019-02-18T10:45:35.907Z,4.77
2019-02-18T10:48:26.323Z,4.90
2019-02-18T10:51:09.140Z,5.07
2019-02-18T10:54:00.123Z,4.90
2019-02-18T10:57:04.367Z,4.80
2019-02-18T10:59:54.760Z,4.90
2019-02-18T11:02:37.372Z,4.77
2019-02-18T11:05:27.773Z,5.03
2019-02-18T11:08:20.719Z,5.10
2019-02-18T11:11:17.041Z,4.80
2019-02-18T11:14:23.055Z,5.17
2019-02-18T11:17:06.388Z,5.00
2019-02-18T11:19:56.744Z,5.03
2019-02-18T11:22:40.975Z,5.07
2019-02-18T11:25:31.374Z,4.67
2019-02-18T11:28:14.607Z,5.23
2019-02-18T11:31:05.791Z,5.40
2019-02-18T11:33:48.591Z,5.00
2019-02-18T11:36:38.986Z,5.10
2019-02-18T11:39:22.179Z,4.97
2019-02-18T11:42:12.538Z,4.70
2019-02-18T11:44:55.874Z,5.20
2019-02-18T11:47:46.622Z,4.70
2019-02-18T11:50:29.788Z,4.63
2019-02-18T11:53:20.139Z,4.97
2019-02-18T11:56:03.608Z,4.70
2019-02-18T11:58:53.988Z,4.97
2019-02-18T12:01:37.150Z,5.00
2019-02-18T12:04:27.520Z,4.90
2019-02-18T12:07:10.682Z,4.83
2019-02-18T12:10:01.169Z,5.37
2019-02-18T12:12:44.074Z,4.77
2019-02-18T12:15:34.463Z,4.70
2019-02-18T12:18:17.072Z,4.67
2019-02-18T12:21:07.734Z,4.83
2019-02-18T12:23:50.903Z,5.00
2019-02-18T12:26:41.318Z,5.03
2019-02-18T12:29:26.453Z,4.83
2019-02-18T12:32:15.957Z,5.17
2019-02-18T12:34:58.713Z,4.60
2019-02-18T12:37:55.253Z,4.93
2019-02-18T12:40:54.186Z,4.37
2019-02-18T12:43:36.934Z,4.53
2019-02-18T12:46:27.354Z,4.50
2019-02-18T12:49:10.166Z,4.20
2019-02-18T12:51:59.922Z,4.03
2019-02-18T12:54:42.691Z,4.30
2019-02-18T12:57:33.065Z,4.50
2019-02-18T13:00:16.507Z,4.27
2019-02-18T13:03:07.041Z,4.00
2019-02-18T13:06:10.140Z,4.70
2019-02-18T13:09:00.535Z,3.97
2019-02-18T13:12:03.283Z,4.40
2019-02-18T13:14:53.652Z,4.13
2019-02-18T13:17:58.418Z,4.00
2019-02-18T13:20:48.778Z,4.17
2019-02-18T13:23:31.888Z,4.00
2019-02-18T13:26:22.284Z,3.93
2019-02-18T13:29:05.612Z,4.03
2019-02-18T13:31:56.867Z,4.00
2019-02-18T13:34:47.264Z,3.90
2019-02-18T13:37:30.628Z,3.80
2019-02-18T13:40:21.148Z,3.97
2019-02-18T13:43:04.489Z,3.90
2019-02-18T13:45:54.899Z,3.80
2019-02-18T13:48:45.832Z,3.80
2019-02-18T13:51:28.799Z,4.23
2019-02-18T13:54:19.214Z,3.93
2019-02-18T13:57:22.046Z,3.53
2019-02-18T14:00:19.337Z,3.60
2019-02-18T14:03:01.945Z,3.80
2019-02-18T14:05:52.302Z,3.70
2019-02-18T14:08:35.259Z,3.90
2019-02-18T14:11:25.636Z,4.30
2019-02-18T14:14:08.270Z,3.33
2019-02-18T14:16:58.645Z,3.47
2019-02-18T14:20:03.093Z,3.50
2019-02-18T14:26:05.415Z,3.20
2019-02-18T14:28:48.816Z,3.27
2019-02-18T14:31:39.198Z,3.30
2019-02-18T14:34:22.382Z,3.17
2019-02-18T14:37:12.761Z,3.33
2019-02-18T14:39:56.221Z,2.93
2019-02-18T14:42:39.177Z,2.83
2019-02-18T14:45:29.615Z,2.87
2019-02-18T14:48:12.949Z,2.73
2019-02-18T14:51:03.333Z,2.77
2019-02-18T14:53:46.031Z,2.93
2019-02-18T14:56:36.683Z,3.50
2019-02-18T14:59:20.104Z,3.50
2019-02-18T15:02:10.988Z,3.50
2019-02-18T15:04:53.849Z,3.40
2019-02-18T15:07:44.271Z,3.70
2019-02-18T15:10:27.720Z,3.73
2019-02-18T15:13:18.107Z,3.73
2019-02-18T15:16:22.430Z,4.03
2019-02-18T15:19:12.823Z,3.70
2019-02-18T15:21:55.433Z,4.07
2019-02-18T15:24:45.858Z,3.83
2019-02-18T15:27:50.511Z,4.17
2019-02-18T15:30:40.984Z,3.20
2019-02-18T15:33:23.746Z,4.23
2019-02-18T15:36:14.087Z,3.53
2019-02-18T15:39:18.390Z,6.00
2019-02-18T15:42:08.839Z,4.20
2019-02-18T15:44:51.877Z,4.37
2019-02-18T15:47:42.263Z,4.50
2019-02-18T15:50:46.699Z,4.10
2019-02-18T15:53:37.158Z,4.50
2019-02-18T15:56:20.111Z,3.90
2019-02-18T15:59:10.485Z,4.03
2019-02-18T16:02:15.668Z,3.40
2019-02-18T16:05:08.847Z,3.80
2019-02-18T16:07:52.060Z,4.30
2019-02-18T16:14:10.443Z,4.27
2019-02-18T16:17:01.423Z,4.37
2019-02-18T16:19:51.805Z,4.37
2019-02-18T16:22:56.892Z,4.87
2019-02-18T16:26:00.055Z,5.77
2019-02-18T16:28:50.419Z,4.37
2019-02-18T16:31:54.652Z,4.40
2019-02-18T16:34:41.339Z,4.47
2019-02-18T16:37:32.307Z,4.23
2019-02-18T16:40:16.153Z,4.80
2019-02-18T16:43:06.550Z,4.60
2019-02-18T16:45:49.627Z,4.90
2019-02-18T16:48:42.760Z,4.37
2019-02-18T16:51:25.833Z,3.93
2019-02-18T16:54:16.224Z,3.73
2019-02-18T16:56:59.666Z,4.20
2019-02-18T16:59:50.069Z,4.10
2019-02-18T17:02:33.223Z,3.70
2019-02-18T17:05:23.625Z,3.60
2019-02-18T17:08:06.643Z,3.40
2019-02-18T17:10:59.468Z,3.53
2019-02-18T17:13:42.550Z,3.23
2019-02-18T17:16:32.980Z,3.40
2019-02-18T17:19:15.620Z,3.23
2019-02-18T17:22:06.009Z,2.90
2019-02-18T17:24:49.513Z,9.43
2019-02-18T17:27:39.897Z,2.87
2019-02-18T17:30:22.758Z,3.03
2019-02-18T17:33:05.555Z,2.73
2019-02-18T17:35:55.928Z,2.87
2019-02-18T17:38:39.306Z,2.63
2019-02-18T17:41:29.697Z,2.90
2019-02-18T17:44:32.773Z,2.63
2019-02-18T17:47:35.435Z,3.00
2019-02-18T17:50:26.778Z,2.80
2019-02-18T17:53:09.971Z,3.17
2019-02-18T17:56:00.341Z,3.00
2019-02-18T17:58:42.951Z,2.73
2019-02-18T18:01:33.307Z,3.10
2019-02-18T18:04:16.521Z,2.90
2019-02-18T18:07:07.113Z,3.57
2019-02-18T18:09:49.133Z,3.13
2019-02-18T18:12:32.636Z,3.53
2019-02-18T18:15:23.011Z,3.40
2019-02-18T18:18:06.412Z,4.23
2019-02-18T18:20:57.133Z,3.80
2019-02-18T18:23:39.881Z,3.47
2019-02-18T18:26:30.276Z,4.10
2019-02-18T18:29:13.589Z,4.03
2019-02-18T18:32:03.968Z,4.07
2019-02-18T18:34:47.261Z,3.73
2019-02-18T18:37:37.674Z,3.93
2019-02-18T18:40:20.886Z,4.23
2019-02-18T18:43:11.295Z,5.07
2019-02-18T18:45:54.686Z,5.10
2019-02-18T18:48:45.143Z,4.70
2019-02-18T18:51:27.950Z,4.30
2019-02-18T18:54:18.444Z,4.80
2019-02-18T18:57:01.114Z,4.83
2019-02-18T18:59:51.575Z,4.67
2019-02-18T19:02:34.796Z,4.63
2019-02-18T19:05:25.250Z,5.10
2019-02-18T19:08:08.484Z,4.90
2019-02-18T19:14:07.985Z,5.03
2019-02-18T19:19:59.976Z,4.97
2019-02-18T19:23:04.563Z,4.80
2019-02-18T19:25:54.963Z,5.43
2019-02-18T19:28:38.136Z,4.70
2019-02-18T19:31:21.178Z,5.40
2019-02-18T19:34:11.579Z,5.27
2019-02-18T19:36:54.358Z,5.50
2019-02-18T19:39:44.754Z,5.57
2019-02-18T19:42:16.159Z,5.70
2019-02-18T19:45:07.605Z,5.90
2019-02-18T19:51:00.176Z,6.10
2019-02-18T19:53:50.581Z,5.50
2019-02-18T19:56:33.853Z,5.67
2019-02-18T19:59:24.289Z,5.37
2019-02-18T20:02:07.227Z,5.80
2019-02-18T20:04:57.732Z,6.20
2019-02-18T20:07:40.759Z,6.03
2019-02-18T20:10:31.329Z,5.63
2019-02-18T20:13:14.479Z,5.80
2019-02-18T20:16:04.988Z,5.57
2019-02-18T20:19:09.914Z,6.03
2019-02-18T20:22:00.346Z,5.30
2019-02-18T20:24:43.681Z,5.27
2019-02-18T20:27:34.123Z,5.57
2019-02-18T20:30:38.970Z,5.27
2019-02-18T20:33:30.412Z,5.27
2019-02-18T20:36:14.050Z,5.70
2019-02-18T20:39:04.979Z,5.37
2019-02-18T20:42:09.610Z,5.10
2019-02-18T20:45:00.234Z,5.50
2019-02-18T20:47:44.556Z,5.40
2019-02-18T20:50:34.940Z,5.37
2019-02-18T20:53:38.279Z,5.10
2019-02-18T20:56:28.791Z,5.50
2019-02-18T20:59:12.201Z,5.90
2019-02-18T21:02:02.608Z,5.87
2019-02-18T21:05:07.790Z,5.30
2019-02-18T21:07:58.239Z,5.77
2019-02-18T21:10:40.841Z,5.80
2019-02-18T21:13:31.285Z,5.77
2019-02-18T21:16:14.409Z,6.17
2019-02-18T21:19:04.824Z,5.93
2019-02-18T21:21:47.725Z,6.17
2019-02-18T21:24:38.178Z,6.07
2019-02-18T21:27:21.707Z,5.63
2019-02-18T21:30:12.774Z,5.93
2019-02-18T21:32:55.864Z,5.63
2019-02-18T21:35:46.525Z,5.60
2019-02-18T21:38:30.053Z,5.97
2019-02-18T21:41:23.976Z,5.93
2019-02-18T21:44:07.492Z,6.00
2019-02-18T21:46:57.850Z,6.37
2019-02-18T21:49:40.976Z,6.13
2019-02-18T21:52:31.383Z,5.90
2019-02-18T21:55:14.320Z,5.60
2019-02-18T21:58:04.693Z,5.83
2019-02-18T22:00:48.095Z,6.10
2019-02-18T22:03:38.459Z,5.83
2019-02-18T22:06:21.413Z,6.10
2019-02-18T22:09:11.806Z,5.67
2019-02-18T22:11:54.842Z,5.73
2019-02-18T22:14:45.223Z,6.00
2019-02-18T22:17:28.318Z,5.73
2019-02-18T22:20:18.730Z,6.07
2019-02-18T22:23:09.082Z,6.03
2019-02-18T22:25:59.539Z,6.63
2019-02-18T22:28:42.673Z,5.80
2019-02-18T22:31:33.052Z,5.87
2019-02-18T22:34:15.686Z,5.80
2019-02-18T22:37:06.037Z,6.23
2019-02-18T22:39:49.107Z,6.17
2019-02-18T22:42:39.580Z,5.87
2019-02-18T22:45:23.194Z,6.30
2019-02-18T22:48:13.585Z,6.00
2019-02-18T22:50:56.931Z,5.40
2019-02-18T22:53:47.293Z,6.40
2019-02-18T22:56:30.003Z,5.90
2019-02-18T22:59:20.395Z,5.73
2019-02-18T23:02:03.236Z,5.93
2019-02-18T23:04:53.605Z,5.70
2019-02-18T23:07:36.891Z,5.77
2019-02-18T23:10:47.177Z,5.40
2019-02-18T23:13:30.625Z,5.57
2019-02-18T23:16:20.962Z,6.00
2019-02-18T23:19:04.357Z,5.00
2019-02-18T23:21:47.303Z,5.33
2019-02-18T23:24:37.674Z,5.57
2019-02-18T23:27:41.893Z,5.50
2019-02-18T23:30:32.284Z,5.10
2019-02-18T23:33:15.019Z,5.37
2019-02-18T23:36:05.416Z,5.40
2019-02-18T23:38:48.714Z,5.23
2019-02-18T23:41:39.112Z,4.77
2019-02-18T23:44:21.949Z,5.37
2019-02-18T23:47:12.323Z,5.53
2019-02-18T23:49:54.904Z,5.67
2019-02-18T23:52:37.401Z,4.50
2019-02-18T23:55:27.777Z,5.10
2019-02-18T23:58:10.879Z,4.83
